createdAt,value
2023-05-14T00:01:29.969Z,33.84
2023-05-14T00:03:56.991Z,33.90
2023-05-14T00:06:24.189Z,34.01
2023-05-14T00:08:50.975Z,33.99
2023-05-14T00:11:17.982Z,34.03
2023-05-14T00:13:44.815Z,33.95
2023-05-14T00:16:12.073Z,34.07
2023-05-14T00:18:39.141Z,34.17
2023-05-14T00:21:06.119Z,34.38
2023-05-14T00:23:32.996Z,34.39
2023-05-14T00:25:59.805Z,34.24
2023-05-14T00:28:26.683Z,34.19
2023-05-14T00:30:53.749Z,34.04
2023-05-14T00:33:20.735Z,34.32
2023-05-14T00:35:47.931Z,34.59
2023-05-14T00:38:19.469Z,34.95
2023-05-14T00:40:51.434Z,35.26
2023-05-14T00:43:19.849Z,35.10
2023-05-14T00:45:47.435Z,35.12
2023-05-14T00:48:14.245Z,35.12
2023-05-14T00:50:41.139Z,35.31
2023-05-14T00:53:10.599Z,35.36
2023-05-14T00:55:38.464Z,35.51
2023-05-14T00:58:07.511Z,35.43
2023-05-14T01:00:34.625Z,35.48
2023-05-14T01:03:03.258Z,35.26
2023-05-14T01:05:38.769Z,35.33
2023-05-14T01:08:34.020Z,35.18
2023-05-14T01:11:05.298Z,35.20
2023-05-14T01:13:40.772Z,34.97
2023-05-14T01:16:09.158Z,35.26
2023-05-14T01:18:36.346Z,35.38
2023-05-14T01:21:03.238Z,35.09
2023-05-14T01:23:30.122Z,34.89
2023-05-14T01:25:57.231Z,34.26
2023-05-14T01:28:28.945Z,34.28
2023-05-14T01:31:04.282Z,34.38
2023-05-14T01:33:31.066Z,34.55
2023-05-14T01:35:58.829Z,34.77
2023-05-14T01:38:25.843Z,35.22
2023-05-14T01:40:52.813Z,35.54
2023-05-14T01:43:19.722Z,35.57
2023-05-14T01:45:47.215Z,35.52
2023-05-14T01:48:15.051Z,35.50
2023-05-14T01:50:41.903Z,35.46
2023-05-14T01:53:08.744Z,35.44
2023-05-14T01:55:35.545Z,35.07
2023-05-14T01:58:02.454Z,34.70
2023-05-14T02:00:29.332Z,34.05
2023-05-14T02:02:57.962Z,33.76
2023-05-14T02:05:24.878Z,33.64
2023-05-14T02:07:52.819Z,33.77
2023-05-14T02:10:19.640Z,34.06
2023-05-14T02:12:49.516Z,34.07
2023-05-14T02:15:16.904Z,34.22
2023-05-14T02:17:43.770Z,34.38
2023-05-14T02:20:11.807Z,34.97
2023-05-14T02:22:38.794Z,35.24
2023-05-14T02:25:06.424Z,35.53
2023-05-14T02:27:33.861Z,35.62
2023-05-14T02:30:01.014Z,35.49
2023-05-14T02:32:28.535Z,35.33
2023-05-14T02:34:55.793Z,35.04
2023-05-14T02:37:22.608Z,35.19
2023-05-14T02:39:49.862Z,35.42
2023-05-14T02:42:16.762Z,35.42
2023-05-14T02:44:43.672Z,35.34
2023-05-14T02:47:11.210Z,35.29
2023-05-14T02:49:38.251Z,34.99
2023-05-14T02:52:05.683Z,35.23
2023-05-14T02:54:32.556Z,35.27
2023-05-14T02:56:59.367Z,35.27
2023-05-14T02:59:27.182Z,34.91
2023-05-14T03:01:54.834Z,34.48
2023-05-14T03:04:22.026Z,34.59
2023-05-14T03:06:48.814Z,34.76
2023-05-14T03:09:15.622Z,34.81
2023-05-14T03:11:42.522Z,34.95
2023-05-14T03:14:09.420Z,35.11
2023-05-14T03:16:36.379Z,35.14
2023-05-14T03:19:04.123Z,35.28
2023-05-14T03:21:32.084Z,35.14
2023-05-14T03:23:58.955Z,34.94
2023-05-14T03:26:25.769Z,34.77
2023-05-14T03:28:53.091Z,34.80
2023-05-14T03:31:19.943Z,34.83
2023-05-14T03:33:47.182Z,34.75
2023-05-14T03:36:13.978Z,34.75
2023-05-14T03:38:41.215Z,34.73
2023-05-14T03:41:08.903Z,34.69
2023-05-14T03:43:36.540Z,34.72
2023-05-14T03:46:03.347Z,34.49
2023-05-14T03:48:30.196Z,34.40
2023-05-14T03:50:57.225Z,34.31
2023-05-14T03:53:24.143Z,34.62
2023-05-14T03:55:51.138Z,34.47
2023-05-14T03:58:17.965Z,34.20
2023-05-14T04:00:44.737Z,34.01
2023-05-14T04:03:12.080Z,33.85
2023-05-14T04:05:39.043Z,33.62
2023-05-14T04:08:06.658Z,33.53
2023-05-14T04:10:33.506Z,33.63
2023-05-14T04:13:00.718Z,33.47
2023-05-14T04:15:31.818Z,33.33
2023-05-14T04:17:58.847Z,33.15
2023-05-14T04:20:25.896Z,33.21
2023-05-14T04:22:54.131Z,32.84
2023-05-14T04:25:21.019Z,32.57
2023-05-14T04:27:47.834Z,32.35
2023-05-14T04:30:14.931Z,32.07
2023-05-14T04:32:41.891Z,32.16
2023-05-14T04:35:10.399Z,32.17
2023-05-14T04:37:37.278Z,32.47
2023-05-14T04:40:05.926Z,32.46
2023-05-14T04:42:32.738Z,32.31
2023-05-14T04:44:59.526Z,32.34
2023-05-14T04:47:26.771Z,32.41
2023-05-14T04:49:53.936Z,32.59
2023-05-14T04:52:21.025Z,32.65
2023-05-14T04:54:47.914Z,32.63
2023-05-14T04:57:14.834Z,32.47
2023-05-14T04:59:41.628Z,32.27
2023-05-14T05:02:08.536Z,31.54
2023-05-14T05:04:35.429Z,29.67
2023-05-14T05:07:02.346Z,28.00
2023-05-14T05:09:30.348Z,26.01
2023-05-14T05:11:57.168Z,24.55
2023-05-14T05:14:23.962Z,23.68
2023-05-14T05:16:51.502Z,22.85
2023-05-14T05:19:19.710Z,22.50
2023-05-14T05:21:49.184Z,22.26
2023-05-14T05:24:16.013Z,21.83
2023-05-14T05:26:42.888Z,21.49
2023-05-14T05:29:09.677Z,21.01
2023-05-14T05:31:36.967Z,19.96
2023-05-14T05:34:03.896Z,19.40
2023-05-14T05:36:31.833Z,18.71
2023-05-14T05:38:58.616Z,17.85
2023-05-14T05:41:26.768Z,17.34
2023-05-14T05:43:53.539Z,16.78
2023-05-14T05:46:20.483Z,16.32
2023-05-14T05:48:47.367Z,15.92
2023-05-14T05:51:14.176Z,15.28
2023-05-14T05:53:40.972Z,14.31
2023-05-14T05:56:07.836Z,14.21
2023-05-14T05:58:35.188Z,13.92
2023-05-14T06:01:02.621Z,13.97
2023-05-14T06:03:29.499Z,13.90
2023-05-14T06:05:56.359Z,13.36
2023-05-14T06:08:23.269Z,13.07
2023-05-14T06:10:50.180Z,13.08
2023-05-14T06:13:17.229Z,12.73
2023-05-14T06:15:44.182Z,12.33
2023-05-14T06:18:10.974Z,12.18
2023-05-14T06:20:37.809Z,11.94
2023-05-14T06:23:04.694Z,12.30
2023-05-14T06:25:31.591Z,12.21
2023-05-14T06:27:58.455Z,12.42
2023-05-14T06:30:25.552Z,12.51
2023-05-14T06:32:52.796Z,12.41
2023-05-14T06:35:19.994Z,12.38
2023-05-14T06:37:46.887Z,12.23
2023-05-14T06:40:15.847Z,12.36
2023-05-14T06:42:42.703Z,12.16
2023-05-14T06:45:10.263Z,11.69
2023-05-14T06:47:37.211Z,11.70
2023-05-14T06:50:04.655Z,11.88
2023-05-14T06:52:31.469Z,11.53
2023-05-14T06:54:58.287Z,11.33
2023-05-14T06:57:25.092Z,11.08
2023-05-14T06:59:52.300Z,10.49
2023-05-14T07:02:19.065Z,10.33
2023-05-14T07:04:46.663Z,10.49
2023-05-14T07:07:15.633Z,10.14
2023-05-14T07:09:42.901Z,10.17
2023-05-14T07:12:09.774Z,10.20
2023-05-14T07:14:36.564Z,9.70
2023-05-14T07:17:03.610Z,9.66
2023-05-14T07:19:30.788Z,8.92
2023-05-14T07:21:58.248Z,8.92
2023-05-14T07:24:25.115Z,8.89
2023-05-14T07:26:52.260Z,9.42
2023-05-14T07:29:19.395Z,9.70
2023-05-14T07:31:46.619Z,9.43
2023-05-14T07:34:13.665Z,9.83
2023-05-14T07:36:41.225Z,9.58
2023-05-14T07:39:08.710Z,9.77
2023-05-14T07:41:35.530Z,9.68
2023-05-14T07:44:02.637Z,9.61
2023-05-14T07:46:29.435Z,9.76
2023-05-14T07:48:56.266Z,9.77
2023-05-14T07:51:23.134Z,10.09
2023-05-14T07:53:49.935Z,10.47
2023-05-14T07:56:16.731Z,10.23
2023-05-14T07:58:43.942Z,9.96
2023-05-14T08:01:10.724Z,10.40
2023-05-14T08:03:37.750Z,10.51
2023-05-14T08:06:04.734Z,10.86
2023-05-14T08:08:31.796Z,11.13
2023-05-14T08:10:58.667Z,10.85
2023-05-14T08:13:25.563Z,10.18
2023-05-14T08:15:52.764Z,10.58
2023-05-14T08:18:19.540Z,10.88
2023-05-14T08:20:47.167Z,11.02
2023-05-14T08:23:14.071Z,11.09
2023-05-14T08:25:40.892Z,10.81
2023-05-14T08:28:07.858Z,10.95
2023-05-14T08:30:34.814Z,10.99
2023-05-14T08:33:01.741Z,11.01
2023-05-14T08:35:28.689Z,11.22
2023-05-14T08:37:57.017Z,11.04
2023-05-14T08:40:24.080Z,11.08
2023-05-14T08:42:51.614Z,10.64
2023-05-14T08:45:19.979Z,10.85
2023-05-14T08:47:50.582Z,10.74
2023-05-14T08:50:18.394Z,10.77
2023-05-14T08:52:46.215Z,10.76
2023-05-14T08:55:13.390Z,10.67
2023-05-14T08:57:40.332Z,11.00
2023-05-14T09:00:16.615Z,10.81
2023-05-14T09:02:43.542Z,10.87
2023-05-14T09:05:10.721Z,10.77
2023-05-14T09:07:37.751Z,10.87
2023-05-14T09:10:05.419Z,10.85
2023-05-14T09:12:32.291Z,10.90
2023-05-14T09:14:59.114Z,10.81
2023-05-14T09:17:27.625Z,10.94
2023-05-14T09:19:54.648Z,12.29
2023-05-14T09:22:21.669Z,14.26
2023-05-14T09:25:05.236Z,15.30
2023-05-14T09:27:33.021Z,16.73
2023-05-14T09:30:13.623Z,16.96
2023-05-14T09:32:44.234Z,16.86
2023-05-14T09:35:20.673Z,18.69
2023-05-14T09:37:49.308Z,18.90
2023-05-14T09:40:17.503Z,18.64
2023-05-14T09:42:44.351Z,20.20
2023-05-14T09:45:11.336Z,21.11
2023-05-14T09:47:39.042Z,21.69
2023-05-14T09:50:07.037Z,22.00
2023-05-14T09:52:33.969Z,21.70
2023-05-14T09:55:01.121Z,21.60
2023-05-14T09:57:28.384Z,20.82
2023-05-14T09:59:55.280Z,20.61
2023-05-14T10:02:37.719Z,20.67
2023-05-14T10:05:06.485Z,20.53
2023-05-14T10:07:41.782Z,19.36
2023-05-14T10:10:11.814Z,19.04
2023-05-14T10:12:40.088Z,18.94
2023-05-14T10:15:16.452Z,18.49
2023-05-14T10:17:45.984Z,17.96
2023-05-14T10:20:13.816Z,18.32
2023-05-14T10:22:40.758Z,17.73
2023-05-14T10:25:08.589Z,17.13
2023-05-14T10:27:35.575Z,17.10
2023-05-14T10:30:02.776Z,16.69
2023-05-14T10:32:33.127Z,16.47
2023-05-14T10:34:59.964Z,15.87
2023-05-14T10:38:59.224Z,16.42
2023-05-14T10:41:26.131Z,15.07
2023-05-14T10:43:53.024Z,14.71
2023-05-14T10:46:19.893Z,14.48
2023-05-14T10:48:46.857Z,14.48
2023-05-14T10:51:14.097Z,14.38
2023-05-14T10:53:42.974Z,14.47
2023-05-14T10:56:11.354Z,14.47
2023-05-14T10:58:47.789Z,14.69
2023-05-14T11:01:14.671Z,14.53
2023-05-14T11:03:45.967Z,14.36
2023-05-14T11:06:15.090Z,14.30
2023-05-14T11:08:41.990Z,14.17
2023-05-14T11:11:08.980Z,14.28
2023-05-14T11:13:36.147Z,14.03
2023-05-14T11:16:15.057Z,13.56
2023-05-14T11:18:49.424Z,13.48
2023-05-14T11:21:17.538Z,13.67
2023-05-14T11:23:46.777Z,13.48
2023-05-14T11:26:13.659Z,13.20
2023-05-14T11:28:40.685Z,13.13
2023-05-14T11:31:07.599Z,12.88
2023-05-14T11:33:34.472Z,12.76
2023-05-14T11:36:01.376Z,12.58
2023-05-14T11:38:28.179Z,12.75
2023-05-14T11:40:55.808Z,12.53
2023-05-14T11:43:23.892Z,12.52
2023-05-14T11:45:52.528Z,12.92
2023-05-14T11:48:23.281Z,12.74
2023-05-14T11:50:51.609Z,12.48
2023-05-14T11:53:20.172Z,12.42
2023-05-14T11:55:47.505Z,12.51
2023-05-14T11:58:14.365Z,12.08
2023-05-14T12:00:41.590Z,11.74
2023-05-14T12:03:10.216Z,11.81
2023-05-14T12:05:40.514Z,11.82
2023-05-14T12:08:21.554Z,11.71
2023-05-14T12:10:48.623Z,11.77
2023-05-14T12:13:17.620Z,11.82
2023-05-14T12:15:47.148Z,11.81
2023-05-14T12:18:24.045Z,11.88
2023-05-14T12:20:52.268Z,11.91
2023-05-14T12:23:29.805Z,12.07
2023-05-14T12:26:02.489Z,11.95
2023-05-14T12:28:29.406Z,12.53
2023-05-14T12:30:57.522Z,13.83
2023-05-14T12:33:26.662Z,14.76
2023-05-14T12:35:54.276Z,15.39
2023-05-14T12:38:21.077Z,15.70
2023-05-14T12:40:47.954Z,15.88
2023-05-14T12:43:15.081Z,16.39
2023-05-14T12:45:41.869Z,16.95
2023-05-14T12:48:08.739Z,17.08
2023-05-14T12:50:35.691Z,16.76
2023-05-14T12:53:02.603Z,16.90
2023-05-14T12:55:29.498Z,16.93
2023-05-14T12:57:56.372Z,17.10
2023-05-14T13:00:23.401Z,15.79
2023-05-14T13:02:50.493Z,15.69
2023-05-14T13:05:17.325Z,15.81
2023-05-14T13:07:44.110Z,16.25
2023-05-14T13:10:11.984Z,16.43
2023-05-14T13:12:39.102Z,16.82
2023-05-14T13:15:06.837Z,16.69
2023-05-14T13:17:33.742Z,16.06
2023-05-14T13:20:00.933Z,15.73
2023-05-14T13:22:27.891Z,15.30
2023-05-14T13:24:54.672Z,15.18
2023-05-14T13:27:21.667Z,15.23
2023-05-14T13:29:48.547Z,15.00
2023-05-14T13:32:15.476Z,15.31
2023-05-14T13:34:44.026Z,15.44
2023-05-14T13:37:11.309Z,15.40
2023-05-14T13:39:39.365Z,15.29
2023-05-14T13:42:08.193Z,15.26
2023-05-14T13:44:36.262Z,15.25
2023-05-14T13:47:03.225Z,15.24
2023-05-14T13:49:30.120Z,15.15
2023-05-14T13:51:57.002Z,14.82
2023-05-14T13:54:23.816Z,14.59
2023-05-14T13:56:51.162Z,14.38
2023-05-14T13:59:18.470Z,14.17
2023-05-14T14:01:45.473Z,14.15
2023-05-14T14:04:12.534Z,14.24
2023-05-14T14:06:39.271Z,14.88
2023-05-14T14:09:06.051Z,15.14
2023-05-14T14:11:32.862Z,15.37
2023-05-14T14:13:59.641Z,15.56
2023-05-14T14:16:26.574Z,15.09
2023-05-14T14:18:53.561Z,15.04
2023-05-14T14:21:21.195Z,15.12
2023-05-14T14:23:48.465Z,15.23
2023-05-14T14:26:15.997Z,15.15
2023-05-14T14:28:43.096Z,15.27
2023-05-14T14:31:11.134Z,15.17
2023-05-14T14:33:38.043Z,15.26
2023-05-14T14:36:06.020Z,15.21
2023-05-14T14:38:32.826Z,15.03
2023-05-14T14:40:59.634Z,15.35
2023-05-14T14:43:26.451Z,15.24
2023-05-14T14:45:53.264Z,15.11
2023-05-14T14:48:28.140Z,14.89
2023-05-14T14:50:55.162Z,15.09
2023-05-14T14:53:22.260Z,15.01
2023-05-14T14:55:49.873Z,14.99
2023-05-14T14:58:18.438Z,15.33
2023-05-14T15:00:45.872Z,16.19
2023-05-14T15:03:12.991Z,17.75
2023-05-14T15:05:40.055Z,18.47
2023-05-14T15:08:06.908Z,19.08
2023-05-14T15:10:38.014Z,19.12
2023-05-14T15:13:06.084Z,19.32
2023-05-14T15:15:36.113Z,19.11
2023-05-14T15:18:03.871Z,19.27
2023-05-14T15:20:30.827Z,19.13
2023-05-14T15:22:57.721Z,19.55
2023-05-14T15:25:25.144Z,19.78
2023-05-14T15:27:52.335Z,19.76
2023-05-14T15:30:19.240Z,19.19
2023-05-14T15:32:46.856Z,19.30
2023-05-14T15:35:14.104Z,19.56
2023-05-14T15:37:42.727Z,19.66
2023-05-14T15:40:10.689Z,18.85
2023-05-14T15:42:38.665Z,18.26
2023-05-14T15:45:06.185Z,18.21
2023-05-14T15:47:33.593Z,17.72
2023-05-14T15:50:00.809Z,17.60
2023-05-14T15:52:27.616Z,17.52
2023-05-14T15:54:56.293Z,17.86
2023-05-14T15:57:23.777Z,18.11
2023-05-14T15:59:51.538Z,18.10
2023-05-14T16:02:18.692Z,18.21
2023-05-14T16:04:45.545Z,18.21
2023-05-14T16:07:13.307Z,18.14
2023-05-14T16:09:40.234Z,17.97
2023-05-14T16:12:07.846Z,17.75
2023-05-14T16:14:35.239Z,17.67
2023-05-14T16:17:02.253Z,17.98
2023-05-14T16:19:29.162Z,18.05
2023-05-14T16:21:56.081Z,18.27
2023-05-14T16:24:22.862Z,18.71
2023-05-14T16:26:49.653Z,19.16
2023-05-14T16:29:16.486Z,20.52
2023-05-14T16:31:43.588Z,21.67
2023-05-14T16:34:10.479Z,21.99
2023-05-14T16:36:37.644Z,21.55
2023-05-14T16:39:07.757Z,21.42
2023-05-14T16:41:38.380Z,21.60
2023-05-14T16:44:05.229Z,22.11
2023-05-14T16:46:32.437Z,22.64
2023-05-14T16:48:59.549Z,22.79
2023-05-14T16:51:26.355Z,23.11
2023-05-14T16:53:55.405Z,22.80
2023-05-14T16:56:23.650Z,22.73
2023-05-14T16:58:50.540Z,22.53
2023-05-14T17:01:17.428Z,22.48
2023-05-14T17:03:45.697Z,22.42
2023-05-14T17:06:12.492Z,22.56
2023-05-14T17:08:39.412Z,22.63
2023-05-14T17:11:06.274Z,22.97
2023-05-14T17:13:33.591Z,23.10
2023-05-14T17:16:01.109Z,23.29
2023-05-14T17:18:28.587Z,23.48
2023-05-14T17:20:55.912Z,23.86
2023-05-14T17:23:22.763Z,24.51
2023-05-14T17:25:49.864Z,24.96
2023-05-14T17:28:16.726Z,24.56
2023-05-14T17:30:43.956Z,24.60
2023-05-14T17:33:11.695Z,24.61
2023-05-14T17:35:38.780Z,24.57
2023-05-14T17:38:05.815Z,25.09
2023-05-14T17:40:33.796Z,25.23
2023-05-14T17:43:00.892Z,25.29
2023-05-14T17:45:28.550Z,25.40
2023-05-14T17:47:57.669Z,25.98
2023-05-14T17:50:24.602Z,26.49
2023-05-14T17:52:51.617Z,25.84
2023-05-14T17:55:19.358Z,25.62
2023-05-14T17:57:46.535Z,25.89
2023-05-14T18:00:14.000Z,26.16
2023-05-14T18:02:41.844Z,26.37
2023-05-14T18:05:09.170Z,26.44
2023-05-14T18:07:36.835Z,26.54
2023-05-14T18:10:04.301Z,26.42
2023-05-14T18:12:31.129Z,26.71
2023-05-14T18:14:58.032Z,27.00
2023-05-14T18:17:24.833Z,27.23
2023-05-14T18:19:51.837Z,27.27
2023-05-14T18:22:20.396Z,27.38
2023-05-14T18:24:47.483Z,27.58
2023-05-14T18:27:14.373Z,27.75
2023-05-14T18:29:42.835Z,27.66
2023-05-14T18:32:09.815Z,27.81
2023-05-14T18:34:36.642Z,27.72
2023-05-14T18:37:03.621Z,27.94
2023-05-14T18:39:30.472Z,28.01
2023-05-14T18:41:57.533Z,28.20
2023-05-14T18:44:24.435Z,27.93
2023-05-14T18:46:51.322Z,28.38
2023-05-14T18:49:18.219Z,28.90
2023-05-14T18:51:45.020Z,29.19
2023-05-14T18:54:11.910Z,30.02
2023-05-14T18:56:41.397Z,30.64
2023-05-14T18:59:09.421Z,31.18
2023-05-14T19:01:36.533Z,31.27
2023-05-14T19:04:05.397Z,31.41
2023-05-14T19:06:32.929Z,31.18
2023-05-14T19:09:00.127Z,30.83
2023-05-14T19:11:27.002Z,30.43
2023-05-14T19:13:53.788Z,29.89
2023-05-14T19:16:21.406Z,29.28
2023-05-14T19:18:48.424Z,28.79
2023-05-14T19:21:15.422Z,28.65
2023-05-14T19:23:42.210Z,28.84
2023-05-14T19:26:09.112Z,29.26
2023-05-14T19:28:37.985Z,30.50
2023-05-14T19:31:05.641Z,30.94
2023-05-14T19:33:32.585Z,30.78
2023-05-14T19:35:59.417Z,30.80
2023-05-14T19:38:26.403Z,30.80
2023-05-14T19:40:56.929Z,30.88
2023-05-14T19:43:25.592Z,31.04
2023-05-14T19:45:52.474Z,31.44
2023-05-14T19:48:19.763Z,31.50
2023-05-14T19:50:47.358Z,31.84
2023-05-14T19:53:14.567Z,32.06
2023-05-14T19:55:41.993Z,32.45
2023-05-14T19:58:09.073Z,32.65
2023-05-14T20:00:37.207Z,32.84
2023-05-14T20:03:06.104Z,33.16
2023-05-14T20:05:34.511Z,32.76
2023-05-14T20:08:01.741Z,32.68
2023-05-14T20:10:28.717Z,32.34
2023-05-14T20:12:55.641Z,32.39
2023-05-14T20:15:22.479Z,32.47
2023-05-14T20:17:49.391Z,32.39
2023-05-14T20:20:16.801Z,32.73
2023-05-14T20:22:44.164Z,33.07
2023-05-14T20:25:11.052Z,33.48
2023-05-14T20:27:37.888Z,34.08
2023-05-14T20:30:08.267Z,34.36
2023-05-14T20:32:35.304Z,34.63
2023-05-14T20:35:02.445Z,34.84
2023-05-14T20:37:33.359Z,35.02
2023-05-14T20:40:00.663Z,34.89
2023-05-14T20:42:27.789Z,34.66
2023-05-14T20:44:54.877Z,34.74
2023-05-14T20:47:24.405Z,35.02
2023-05-14T20:49:51.346Z,35.16
2023-05-14T20:52:18.975Z,35.44
2023-05-14T20:54:46.184Z,35.91
2023-05-14T20:57:16.069Z,36.20
2023-05-14T20:59:42.891Z,36.02
2023-05-14T21:02:09.910Z,35.38
2023-05-14T21:04:37.024Z,35.37
2023-05-14T21:07:04.271Z,35.40
2023-05-14T21:09:31.184Z,35.24
2023-05-14T21:11:57.973Z,35.32
2023-05-14T21:14:25.110Z,35.24
2023-05-14T21:16:52.001Z,35.30
2023-05-14T21:19:18.886Z,35.60
2023-05-14T21:21:47.496Z,35.78
2023-05-14T21:24:16.855Z,36.13
2023-05-14T21:26:43.722Z,35.84
2023-05-14T21:29:11.215Z,35.37
2023-05-14T21:31:38.096Z,35.42
2023-05-14T21:34:05.059Z,35.48
2023-05-14T21:36:31.956Z,35.72
2023-05-14T21:38:58.744Z,35.74
2023-05-14T21:41:25.819Z,35.87
2023-05-14T21:43:52.742Z,35.81
2023-05-14T21:46:19.532Z,35.67
2023-05-14T21:48:46.468Z,35.64
2023-05-14T21:51:13.420Z,35.56
2023-05-14T21:53:40.223Z,35.75
2023-05-14T21:56:08.300Z,35.83
2023-05-14T21:58:35.976Z,36.04
2023-05-14T22:01:02.849Z,36.04
2023-05-14T22:03:29.792Z,36.11
2023-05-14T22:05:57.422Z,36.30
2023-05-14T22:08:24.304Z,36.28
2023-05-14T22:10:51.300Z,35.93
2023-05-14T22:13:18.183Z,35.80
2023-05-14T22:15:45.075Z,35.86
2023-05-14T22:18:12.998Z,35.84
2023-05-14T22:20:40.243Z,35.98
2023-05-14T22:23:07.252Z,36.06
2023-05-14T22:25:34.110Z,36.12
2023-05-14T22:28:00.941Z,36.21
2023-05-14T22:30:27.822Z,36.17
2023-05-14T22:32:54.686Z,36.15
2023-05-14T22:35:21.629Z,36.24
2023-05-14T22:37:48.523Z,36.22
2023-05-14T22:40:15.351Z,36.13
2023-05-14T22:42:42.155Z,35.70
2023-05-14T22:45:09.880Z,35.42
2023-05-14T22:47:37.966Z,35.35
2023-05-14T22:50:11.293Z,35.30
2023-05-14T22:52:39.434Z,35.41
2023-05-14T22:56:52.837Z,37.93
2023-05-14T22:59:21.015Z,36.21
2023-05-14T23:01:49.920Z,35.95
2023-05-14T23:04:16.828Z,36.04
2023-05-14T23:06:43.625Z,35.88
2023-05-14T23:09:10.417Z,35.82
2023-05-14T23:11:37.314Z,35.91
2023-05-14T23:14:04.153Z,35.47
2023-05-14T23:16:32.036Z,35.26
2023-05-14T23:18:58.951Z,35.24
2023-05-14T23:21:26.053Z,35.42
2023-05-14T23:23:52.992Z,35.79
2023-05-14T23:26:19.928Z,36.27
2023-05-14T23:28:47.583Z,36.83
2023-05-14T23:31:14.395Z,36.94
2023-05-14T23:33:41.250Z,37.36
2023-05-14T23:36:08.692Z,37.34
2023-05-14T23:38:35.568Z,37.43
2023-05-14T23:41:02.381Z,37.31
2023-05-14T23:43:29.260Z,37.42
2023-05-14T23:45:56.141Z,37.35
2023-05-14T23:48:23.056Z,37.43
2023-05-14T23:50:49.962Z,37.49
2023-05-14T23:53:17.767Z,37.66
2023-05-14T23:55:44.704Z,37.67
2023-05-14T23:58:11.796Z,37.74
